createdAt,value
2022-08-26T00:00:53.922Z,22.34
2022-08-26T00:03:24.356Z,22.36
2022-08-26T00:05:52.798Z,22.38
2022-08-26T00:08:23.543Z,22.16
2022-08-26T00:10:52.004Z,22.30
2022-08-26T00:13:20.041Z,22.31
2022-08-26T00:15:48.372Z,22.29
2022-08-26T00:18:22.073Z,22.27
2022-08-26T00:20:51.486Z,22.25
2022-08-26T00:23:19.571Z,22.24
2022-08-26T00:25:51.718Z,22.27
2022-08-26T00:28:20.193Z,22.27
2022-08-26T00:30:51.600Z,22.35
2022-08-26T00:33:21.032Z,22.32
2022-08-26T00:35:49.501Z,22.33
2022-08-26T00:38:21.211Z,22.33
2022-08-26T00:42:36.681Z,22.24
2022-08-26T00:45:11.681Z,22.21
2022-08-26T00:47:48.554Z,22.13
2022-08-26T00:50:20.898Z,22.06
2022-08-26T00:52:49.196Z,21.89
2022-08-26T00:55:37.718Z,21.91
2022-08-26T00:58:10.274Z,21.83
2022-08-26T01:00:38.477Z,21.79
2022-08-26T01:03:11.526Z,21.69
2022-08-26T01:05:42.173Z,21.65
2022-08-26T01:08:10.527Z,21.61
2022-08-26T01:10:38.897Z,21.60
2022-08-26T01:13:12.359Z,21.50
2022-08-26T01:15:44.606Z,21.47
2022-08-26T01:18:14.834Z,21.59
2022-08-26T01:20:57.743Z,21.46
2022-08-26T01:23:32.181Z,21.37
2022-08-26T01:26:06.499Z,21.33
2022-08-26T01:28:36.891Z,21.37
2022-08-26T01:31:08.793Z,21.37
2022-08-26T01:33:45.308Z,21.28
2022-08-26T01:36:15.936Z,21.21
2022-08-26T01:38:46.196Z,21.20
2022-08-26T01:41:19.722Z,21.22
2022-08-26T01:43:58.193Z,21.29
2022-08-26T01:46:28.108Z,21.19
2022-08-26T01:49:01.818Z,21.03
2022-08-26T01:51:31.579Z,21.08
2022-08-26T01:54:03.028Z,21.08
2022-08-26T01:56:33.350Z,21.07
2022-08-26T01:59:06.707Z,21.02
2022-08-26T02:01:35.871Z,21.04
2022-08-26T02:04:11.001Z,21.08
2022-08-26T02:06:39.923Z,21.01
2022-08-26T02:09:13.219Z,21.07
2022-08-26T02:11:43.385Z,21.00
2022-08-26T02:14:16.040Z,21.06
2022-08-26T02:16:48.452Z,21.01
2022-08-26T02:19:19.722Z,21.03
2022-08-26T02:21:51.094Z,21.14
2022-08-26T02:24:24.535Z,21.07
2022-08-26T02:26:57.497Z,20.95
2022-08-26T02:29:32.810Z,20.92
2022-08-26T02:32:03.149Z,20.88
2022-08-26T02:34:33.531Z,20.88
2022-08-26T02:37:03.899Z,20.78
2022-08-26T02:39:34.585Z,20.74
2022-08-26T02:42:06.328Z,20.70
2022-08-26T02:44:34.395Z,20.73
2022-08-26T02:47:02.978Z,20.72
2022-08-26T02:49:31.503Z,20.67
2022-08-26T02:52:01.856Z,20.68
2022-08-26T02:54:30.380Z,20.61
2022-08-26T02:56:59.684Z,20.63
2022-08-26T02:59:31.496Z,20.48
2022-08-26T03:02:01.790Z,20.60
2022-08-26T03:04:33.347Z,20.59
2022-08-26T03:07:01.772Z,20.69
2022-08-26T03:09:33.369Z,20.55
2022-08-26T03:12:03.054Z,20.61
2022-08-26T03:14:31.341Z,20.50
2022-08-26T03:16:59.526Z,20.39
2022-08-26T03:19:27.863Z,20.30
2022-08-26T03:22:00.766Z,20.27
2022-08-26T03:24:29.045Z,20.24
2022-08-26T03:26:57.676Z,20.38
2022-08-26T03:29:44.720Z,20.33
2022-08-26T03:32:17.611Z,20.31
2022-08-26T03:34:46.423Z,20.25
2022-08-26T03:37:17.361Z,20.21
2022-08-26T03:39:46.792Z,20.17
2022-08-26T03:42:17.634Z,20.12
2022-08-26T03:44:53.584Z,20.07
2022-08-26T03:47:24.067Z,20.15
2022-08-26T03:49:52.263Z,20.15
2022-08-26T03:52:20.290Z,20.07
2022-08-26T03:54:48.628Z,20.08
2022-08-26T03:57:16.664Z,20.15
2022-08-26T03:59:45.306Z,20.08
2022-08-26T04:02:17.171Z,20.12
2022-08-26T04:04:48.881Z,20.10
2022-08-26T04:07:17.529Z,20.02
2022-08-26T04:09:46.071Z,19.99
2022-08-26T04:12:14.823Z,20.01
2022-08-26T04:14:43.088Z,20.09
2022-08-26T04:17:13.500Z,20.05
2022-08-26T04:19:42.978Z,20.10
2022-08-26T04:22:11.443Z,20.06
2022-08-26T04:24:40.304Z,19.95
2022-08-26T04:27:08.627Z,20.04
2022-08-26T04:29:37.650Z,20.18
2022-08-26T04:32:06.985Z,20.11
2022-08-26T04:34:35.491Z,20.11
2022-08-26T04:37:05.915Z,20.05
2022-08-26T04:39:34.428Z,20.25
2022-08-26T04:42:06.031Z,20.06
2022-08-26T04:44:37.622Z,19.98
2022-08-26T04:47:06.675Z,19.95
2022-08-26T04:49:37.204Z,19.95
2022-08-26T04:52:07.064Z,20.13
2022-08-26T04:54:35.916Z,20.18
2022-08-26T04:57:06.304Z,20.07
2022-08-26T04:59:39.299Z,19.98
2022-08-26T05:02:08.090Z,19.96
2022-08-26T05:04:37.457Z,19.95
2022-08-26T05:07:08.121Z,19.93
2022-08-26T05:09:41.586Z,20.02
2022-08-26T05:12:12.130Z,20.10
2022-08-26T05:14:41.586Z,20.04
2022-08-26T05:17:09.593Z,20.03
2022-08-26T05:19:43.193Z,20.07
2022-08-26T05:22:13.201Z,20.10
2022-08-26T05:24:42.089Z,20.17
2022-08-26T05:27:12.596Z,20.21
2022-08-26T05:29:41.037Z,20.22
2022-08-26T05:32:08.975Z,20.20
2022-08-26T05:34:39.548Z,20.21
2022-08-26T05:37:11.163Z,20.20
2022-08-26T05:39:43.450Z,20.19
2022-08-26T05:43:38.446Z,20.14
2022-08-26T05:46:08.816Z,20.13
2022-08-26T05:48:37.056Z,20.22
2022-08-26T05:51:08.142Z,20.33
2022-08-26T05:53:37.828Z,20.50
2022-08-26T05:56:08.206Z,20.70
2022-08-26T05:58:42.030Z,20.90
2022-08-26T06:01:16.170Z,21.05
2022-08-26T06:03:46.682Z,21.26
2022-08-26T06:06:20.793Z,21.46
2022-08-26T06:08:57.550Z,21.65
2022-08-26T06:11:32.308Z,21.83
2022-08-26T06:14:04.374Z,22.07
2022-08-26T06:16:34.735Z,22.25
2022-08-26T06:19:10.917Z,22.40
2022-08-26T06:21:41.589Z,22.56
2022-08-26T06:24:29.168Z,22.70
2022-08-26T06:27:01.380Z,23.27
2022-08-26T06:29:33.145Z,23.65
2022-08-26T06:32:02.675Z,24.18
2022-08-26T06:34:33.858Z,25.03
2022-08-26T06:37:03.534Z,25.53
2022-08-26T06:39:36.512Z,26.46
2022-08-26T06:42:09.512Z,26.79
2022-08-26T06:44:41.686Z,27.62
2022-08-26T06:47:12.728Z,27.27
2022-08-26T06:49:42.127Z,27.85
2022-08-26T06:52:12.696Z,28.24
2022-08-26T06:54:43.077Z,28.10
2022-08-26T06:57:14.262Z,28.69
2022-08-26T06:59:46.212Z,28.80
2022-08-26T07:02:16.683Z,28.55
2022-08-26T07:04:47.777Z,29.30
2022-08-26T07:07:16.703Z,29.72
2022-08-26T07:09:45.927Z,30.63
2022-08-26T07:12:14.108Z,30.61
2022-08-26T07:14:43.778Z,30.45
2022-08-26T07:17:20.459Z,31.30
2022-08-26T07:19:48.994Z,30.97
2022-08-26T07:22:20.455Z,31.34
2022-08-26T07:24:49.326Z,32.18
2022-08-26T07:27:22.311Z,31.65
2022-08-26T07:29:50.750Z,30.80
2022-08-26T07:32:22.936Z,29.98
2022-08-26T07:34:52.254Z,29.23
2022-08-26T07:37:20.471Z,27.66
2022-08-26T07:39:48.640Z,27.07
2022-08-26T07:42:22.810Z,26.89
2022-08-26T07:44:54.470Z,26.74
2022-08-26T07:47:25.613Z,26.44
2022-08-26T07:49:58.084Z,27.27
2022-08-26T07:52:30.928Z,27.40
2022-08-26T07:55:01.280Z,28.14
2022-08-26T07:57:31.115Z,29.12
2022-08-26T08:00:02.163Z,28.80
2022-08-26T08:02:41.617Z,29.14
2022-08-26T08:05:09.893Z,29.22
2022-08-26T08:07:45.381Z,28.86
2022-08-26T08:10:20.764Z,28.93
2022-08-26T08:12:50.322Z,28.36
2022-08-26T08:15:21.133Z,28.33
2022-08-26T08:17:51.697Z,29.66
2022-08-26T08:20:20.835Z,31.27
2022-08-26T08:22:49.142Z,32.35
2022-08-26T08:25:20.241Z,33.19
2022-08-26T08:27:48.646Z,34.10
2022-08-26T08:30:22.910Z,35.14
2022-08-26T08:32:55.883Z,35.29
2022-08-26T08:35:26.473Z,36.17
2022-08-26T08:37:56.518Z,37.17
2022-08-26T08:40:29.349Z,37.01
2022-08-26T08:43:00.650Z,36.51
2022-08-26T08:45:37.002Z,36.68
2022-08-26T08:48:19.298Z,36.36
2022-08-26T08:50:51.699Z,35.76
2022-08-26T08:53:26.399Z,35.82
2022-08-26T08:56:03.425Z,36.05
2022-08-26T08:58:45.829Z,36.73
2022-08-26T09:01:25.997Z,36.82
2022-08-26T09:04:12.676Z,36.68
2022-08-26T09:06:48.194Z,36.87
2022-08-26T09:09:24.957Z,36.83
2022-08-26T09:11:54.404Z,36.28
2022-08-26T09:14:22.876Z,36.24
2022-08-26T09:17:03.467Z,35.23
2022-08-26T09:19:41.390Z,33.67
2022-08-26T09:22:10.085Z,32.76
2022-08-26T09:24:41.938Z,33.30
2022-08-26T09:27:37.627Z,33.88
2022-08-26T09:30:07.629Z,34.94
2022-08-26T09:32:40.217Z,36.10
2022-08-26T09:35:24.284Z,36.64
2022-08-26T09:37:53.100Z,35.08
2022-08-26T09:40:30.708Z,35.52
2022-08-26T09:43:13.569Z,36.31
2022-08-26T09:45:50.116Z,36.27
2022-08-26T09:48:28.804Z,35.98
2022-08-26T09:51:05.604Z,35.41
2022-08-26T09:53:37.717Z,35.12
2022-08-26T09:56:15.441Z,34.16
2022-08-26T09:58:47.275Z,34.75
2022-08-26T10:01:30.409Z,35.68
2022-08-26T10:04:08.753Z,36.25
2022-08-26T10:06:43.638Z,35.98
2022-08-26T10:09:19.486Z,36.99
2022-08-26T10:11:51.953Z,36.62
2022-08-26T10:14:26.136Z,37.99
2022-08-26T10:16:58.244Z,38.28
2022-08-26T10:19:56.013Z,38.52
2022-08-26T10:22:30.019Z,36.14
2022-08-26T10:25:03.386Z,35.58
2022-08-26T10:27:51.101Z,35.21
2022-08-26T10:30:25.274Z,34.82
2022-08-26T10:32:58.513Z,36.76
2022-08-26T10:35:27.447Z,35.62
2022-08-26T10:38:04.367Z,35.27
2022-08-26T10:40:43.868Z,34.94
2022-08-26T10:44:41.456Z,33.85
2022-08-26T10:47:19.388Z,33.09
2022-08-26T10:49:51.861Z,33.54
2022-08-26T10:52:29.974Z,33.26
2022-08-26T10:55:05.268Z,32.62
2022-08-26T10:57:44.720Z,32.72
2022-08-26T11:00:50.165Z,32.67
2022-08-26T11:03:33.106Z,33.50
2022-08-26T11:06:23.343Z,33.40
2022-08-26T11:08:52.490Z,34.28
2022-08-26T11:11:47.201Z,35.98
2022-08-26T11:14:41.096Z,36.08
2022-08-26T11:17:57.958Z,36.81
2022-08-26T11:20:36.646Z,37.54
2022-08-26T11:23:50.487Z,37.77
2022-08-26T11:26:36.195Z,38.38
2022-08-26T11:29:13.548Z,38.46
2022-08-26T11:31:57.724Z,38.17
2022-08-26T11:34:56.387Z,37.62
2022-08-26T11:37:33.082Z,38.25
2022-08-26T11:40:02.947Z,39.32
2022-08-26T11:42:42.699Z,38.30
2022-08-26T11:45:23.587Z,37.72
2022-08-26T11:47:52.237Z,38.75
2022-08-26T11:50:26.900Z,37.51
2022-08-26T11:53:01.574Z,37.63
2022-08-26T11:55:33.583Z,37.19
2022-08-26T11:58:04.658Z,37.36
2022-08-26T12:00:36.052Z,37.45
2022-08-26T12:03:09.188Z,36.92
2022-08-26T12:05:45.538Z,37.14
2022-08-26T12:08:17.439Z,36.73
2022-08-26T12:10:48.225Z,36.18
2022-08-26T12:13:26.253Z,35.22
2022-08-26T12:15:56.367Z,35.18
2022-08-26T12:18:29.581Z,34.63
2022-08-26T12:21:02.518Z,35.50
2022-08-26T12:23:47.258Z,35.09
2022-08-26T12:26:23.407Z,34.33
2022-08-26T12:28:56.067Z,33.81
2022-08-26T12:31:32.471Z,33.63
2022-08-26T12:34:03.052Z,33.66
2022-08-26T12:36:36.232Z,33.08
2022-08-26T12:39:09.364Z,33.14
2022-08-26T12:41:50.088Z,32.78
2022-08-26T12:44:53.103Z,32.41
2022-08-26T12:47:40.074Z,32.68
2022-08-26T12:50:17.691Z,32.50
2022-08-26T12:52:57.944Z,31.77
2022-08-26T12:55:39.534Z,32.34
2022-08-26T12:58:26.328Z,32.29
2022-08-26T13:00:56.600Z,32.24
2022-08-26T13:03:38.298Z,32.12
2022-08-26T13:06:27.822Z,31.94
2022-08-26T13:08:59.179Z,31.51
2022-08-26T13:11:29.858Z,31.61
2022-08-26T13:14:00.332Z,31.60
2022-08-26T13:16:30.479Z,31.86
2022-08-26T13:19:00.643Z,31.79
2022-08-26T13:21:32.052Z,31.80
2022-08-26T13:24:12.093Z,32.10
2022-08-26T13:26:44.779Z,32.39
2022-08-26T13:29:13.535Z,32.52
2022-08-26T13:31:44.401Z,32.65
2022-08-26T13:34:18.059Z,32.63
2022-08-26T13:36:46.536Z,32.27
2022-08-26T13:39:16.028Z,32.28
2022-08-26T13:41:44.389Z,32.46
2022-08-26T13:44:13.505Z,32.41
2022-08-26T13:49:12.995Z,32.62
2022-08-26T13:51:41.680Z,32.78
2022-08-26T13:54:09.901Z,32.75
2022-08-26T13:56:39.244Z,32.37
2022-08-26T13:59:07.716Z,32.62
2022-08-26T14:01:37.124Z,32.45
2022-08-26T14:04:05.293Z,32.29
2022-08-26T14:06:33.495Z,32.15
2022-08-26T14:09:01.616Z,31.78
2022-08-26T14:11:30.178Z,31.89
2022-08-26T14:14:16.322Z,31.92
2022-08-26T14:16:58.909Z,31.65
2022-08-26T14:19:30.714Z,31.57
2022-08-26T14:22:03.490Z,31.33
2022-08-26T14:24:33.882Z,31.20
2022-08-26T14:27:01.811Z,31.28
2022-08-26T14:29:31.106Z,31.01
2022-08-26T14:32:11.585Z,30.97
2022-08-26T14:34:42.663Z,30.90
2022-08-26T14:37:15.398Z,30.83
2022-08-26T14:39:43.759Z,30.86
2022-08-26T14:42:15.111Z,30.92
2022-08-26T14:44:48.630Z,30.76
2022-08-26T14:47:16.867Z,30.64
2022-08-26T14:49:47.319Z,30.57
2022-08-26T14:52:15.402Z,30.46
2022-08-26T14:54:44.771Z,30.24
2022-08-26T14:57:14.657Z,30.02
2022-08-26T14:59:45.517Z,29.92
2022-08-26T15:02:33.450Z,29.90
2022-08-26T15:05:05.133Z,29.77
2022-08-26T15:07:33.131Z,29.56
2022-08-26T15:10:01.138Z,29.32
2022-08-26T15:12:29.243Z,29.25
2022-08-26T15:14:57.202Z,29.04
2022-08-26T15:17:26.945Z,29.00
2022-08-26T15:19:55.079Z,28.94
2022-08-26T15:22:23.005Z,28.87
2022-08-26T15:24:53.581Z,28.86
2022-08-26T15:27:22.110Z,28.79
2022-08-26T15:29:50.042Z,28.80
2022-08-26T15:32:18.248Z,28.67
2022-08-26T15:34:47.698Z,28.55
2022-08-26T15:37:15.866Z,28.47
2022-08-26T15:39:44.210Z,28.44
2022-08-26T15:45:37.008Z,27.98
2022-08-26T15:48:05.607Z,27.77
2022-08-26T15:50:33.593Z,27.64
2022-08-26T15:53:01.985Z,27.57
2022-08-26T15:55:29.899Z,27.43
2022-08-26T15:57:58.010Z,27.45
2022-08-26T16:00:28.503Z,27.43
2022-08-26T16:02:57.977Z,27.36
2022-08-26T16:05:26.133Z,27.22
2022-08-26T16:07:58.937Z,27.02
2022-08-26T16:10:29.036Z,27.05
2022-08-26T16:12:57.050Z,27.05
2022-08-26T16:15:28.510Z,26.80
2022-08-26T16:18:01.933Z,26.80
2022-08-26T16:20:31.268Z,26.69
2022-08-26T16:23:03.104Z,26.70
2022-08-26T16:25:32.111Z,26.73
2022-08-26T16:28:00.055Z,26.66
2022-08-26T16:30:28.506Z,26.75
2022-08-26T16:32:58.981Z,26.71
2022-08-26T16:35:30.630Z,26.56
2022-08-26T16:37:58.858Z,26.50
2022-08-26T16:40:26.884Z,26.56
2022-08-26T16:42:55.659Z,26.58
2022-08-26T16:45:24.633Z,26.53
2022-08-26T16:47:52.796Z,26.42
2022-08-26T16:50:22.272Z,26.46
2022-08-26T16:52:55.779Z,26.48
2022-08-26T16:55:24.521Z,26.36
2022-08-26T16:57:53.354Z,26.25
2022-08-26T17:00:26.141Z,25.97
2022-08-26T17:02:54.415Z,25.95
2022-08-26T17:05:24.915Z,25.89
2022-08-26T17:07:55.436Z,25.85
2022-08-26T17:10:28.974Z,25.70
2022-08-26T17:12:57.864Z,25.63
2022-08-26T17:15:28.978Z,25.57
2022-08-26T17:17:57.762Z,25.40
2022-08-26T17:20:26.824Z,25.24
2022-08-26T17:22:57.030Z,25.10
2022-08-26T17:25:27.226Z,25.06
2022-08-26T17:30:25.862Z,25.04
2022-08-26T17:32:55.109Z,24.95
2022-08-26T17:35:24.052Z,24.84
2022-08-26T17:37:53.130Z,24.81
2022-08-26T17:40:27.016Z,24.63
2022-08-26T17:42:58.790Z,24.61
2022-08-26T17:45:29.214Z,24.52
2022-08-26T17:47:57.640Z,24.43
2022-08-26T17:50:28.143Z,24.38
2022-08-26T17:52:56.579Z,24.32
2022-08-26T17:55:26.040Z,24.28
2022-08-26T17:57:54.395Z,24.22
2022-08-26T18:00:26.607Z,24.15
2022-08-26T18:02:57.130Z,24.05
2022-08-26T18:05:25.878Z,23.92
2022-08-26T18:07:53.964Z,23.96
2022-08-26T18:10:22.550Z,23.94
2022-08-26T18:12:52.011Z,23.85
2022-08-26T18:15:21.247Z,23.79
2022-08-26T18:17:51.742Z,23.79
2022-08-26T18:20:20.862Z,23.75
2022-08-26T18:22:49.598Z,23.70
2022-08-26T18:25:19.060Z,23.66
2022-08-26T18:27:47.178Z,23.64
2022-08-26T18:30:21.612Z,23.59
2022-08-26T18:32:52.656Z,23.46
2022-08-26T18:35:21.920Z,23.46
2022-08-26T18:37:50.067Z,23.41
2022-08-26T18:40:18.353Z,23.32
2022-08-26T18:42:47.033Z,23.31
2022-08-26T18:45:23.496Z,23.27
2022-08-26T18:47:54.077Z,23.27
2022-08-26T18:50:22.309Z,23.23
2022-08-26T18:52:50.451Z,23.19
2022-08-26T18:55:20.735Z,23.11
2022-08-26T18:57:49.498Z,23.09
2022-08-26T19:00:18.252Z,23.09
2022-08-26T19:02:51.664Z,23.08
2022-08-26T19:05:22.426Z,23.06
2022-08-26T19:07:52.567Z,22.98
2022-08-26T19:10:20.876Z,22.95
2022-08-26T19:12:55.362Z,22.96
2022-08-26T19:15:29.408Z,22.95
2022-08-26T19:17:59.122Z,22.96
2022-08-26T19:20:27.219Z,22.92
2022-08-26T19:22:57.443Z,22.88
2022-08-26T19:25:28.004Z,22.90
2022-08-26T19:27:58.883Z,22.86
2022-08-26T19:30:28.027Z,22.84
2022-08-26T19:33:02.286Z,22.83
2022-08-26T19:35:33.445Z,22.79
2022-08-26T19:38:01.880Z,22.76
2022-08-26T19:40:30.536Z,22.76
2022-08-26T19:42:58.802Z,22.74
2022-08-26T19:45:27.154Z,22.69
2022-08-26T19:47:55.297Z,22.68
2022-08-26T19:50:27.862Z,22.67
2022-08-26T19:52:58.772Z,22.66
2022-08-26T19:55:30.313Z,22.62
2022-08-26T19:57:58.469Z,22.62
2022-08-26T20:00:28.874Z,22.59
2022-08-26T20:02:57.594Z,22.59
2022-08-26T20:05:28.247Z,22.62
2022-08-26T20:07:56.557Z,22.67
2022-08-26T20:10:25.042Z,22.61
2022-08-26T20:12:53.384Z,22.63
2022-08-26T20:15:26.060Z,22.61
2022-08-26T20:17:58.949Z,22.69
2022-08-26T20:20:45.625Z,22.64
2022-08-26T20:23:16.918Z,22.59
2022-08-26T20:25:46.588Z,22.57
2022-08-26T20:28:14.681Z,22.58
2022-08-26T20:30:42.764Z,22.48
2022-08-26T20:33:10.893Z,22.44
2022-08-26T20:35:40.216Z,22.42
2022-08-26T20:38:10.952Z,22.40
2022-08-26T20:40:42.135Z,22.32
2022-08-26T20:46:37.578Z,22.31
2022-08-26T20:49:07.491Z,22.26
2022-08-26T20:51:37.402Z,22.37
2022-08-26T20:54:06.291Z,22.34
2022-08-26T20:56:37.229Z,22.31
2022-08-26T20:59:07.780Z,22.25
2022-08-26T21:01:42.396Z,22.20
2022-08-26T21:04:13.844Z,22.17
2022-08-26T21:06:49.018Z,22.19
2022-08-26T21:09:24.661Z,22.22
2022-08-26T21:11:53.573Z,22.15
2022-08-26T21:14:23.211Z,22.12
2022-08-26T21:16:55.687Z,22.02
2022-08-26T21:19:23.858Z,21.99
2022-08-26T21:21:52.084Z,21.95
2022-08-26T21:24:22.567Z,21.90
2022-08-26T21:26:50.800Z,21.87
2022-08-26T21:29:19.006Z,21.78
2022-08-26T21:31:47.202Z,21.87
2022-08-26T21:34:18.374Z,21.82
2022-08-26T21:36:49.767Z,21.86
2022-08-26T21:39:18.034Z,21.80
2022-08-26T21:41:47.284Z,21.89
2022-08-26T21:44:16.915Z,21.82
2022-08-26T21:46:46.625Z,21.86
2022-08-26T21:49:18.596Z,21.86
2022-08-26T21:51:49.623Z,21.79
2022-08-26T21:54:19.160Z,21.87
2022-08-26T21:56:48.532Z,21.87
2022-08-26T21:59:19.195Z,21.85
2022-08-26T22:01:47.458Z,21.86
2022-08-26T22:04:16.680Z,21.81
2022-08-26T22:06:47.987Z,21.79
2022-08-26T22:09:22.011Z,21.72
2022-08-26T22:11:50.501Z,21.74
2022-08-26T22:14:24.592Z,21.76
2022-08-26T22:16:55.269Z,21.70
2022-08-26T22:19:25.600Z,21.68
2022-08-26T22:21:56.492Z,21.66
2022-08-26T22:24:27.114Z,21.67
2022-08-26T22:26:59.667Z,21.73
2022-08-26T22:29:27.797Z,21.68
2022-08-26T22:31:57.263Z,21.66
2022-08-26T22:34:28.555Z,21.65
2022-08-26T22:36:57.895Z,21.57
2022-08-26T22:39:27.114Z,21.44
2022-08-26T22:41:56.876Z,21.37
2022-08-26T22:44:24.958Z,21.38
2022-08-26T22:46:55.096Z,21.37
2022-08-26T22:49:24.377Z,21.31
2022-08-26T22:51:52.445Z,21.27
2022-08-26T22:54:21.912Z,21.28
2022-08-26T22:56:49.945Z,21.19
2022-08-26T22:59:22.793Z,21.12
2022-08-26T23:01:51.394Z,21.09
2022-08-26T23:04:19.734Z,21.06
2022-08-26T23:06:48.073Z,21.05
2022-08-26T23:09:18.004Z,20.99
2022-08-26T23:11:48.599Z,21.04
2022-08-26T23:14:19.918Z,21.02
2022-08-26T23:16:51.693Z,20.99
2022-08-26T23:19:22.120Z,20.98
2022-08-26T23:21:53.071Z,21.00
2022-08-26T23:24:23.446Z,20.98
2022-08-26T23:26:52.996Z,21.03
2022-08-26T23:29:21.097Z,21.11
2022-08-26T23:31:49.117Z,21.05
2022-08-26T23:34:34.735Z,20.96
2022-08-26T23:37:04.842Z,20.70
2022-08-26T23:39:37.644Z,20.78
2022-08-26T23:42:08.125Z,20.66
2022-08-26T23:44:36.079Z,20.60
2022-08-26T23:47:04.924Z,20.62
2022-08-26T23:49:33.764Z,20.59
2022-08-26T23:52:19.353Z,20.48
2022-08-26T23:54:48.600Z,20.49
2022-08-26T23:57:22.860Z,20.47
2022-08-26T23:59:51.161Z,20.50
